Time;durP1;ratioP1;P1;durP2;ratioP2;P2;SDS_P1;SDS_P2;PMS_P1;PMS_P2;Temp;Humidity;BMP_temperature;BMP_pressure;BME280_temperature;BME280_humidity;BME280_pressure;Samples;Min_cycle;Max_cycle;Signal;HPM_P1;HPM_P2
2022/09/21 00:01:19;;;;;;;1.95;1.30;;;;;;;9.56;90.48;102746.91;5092815;28;20520;-83
2022/09/21 00:03:47;;;;;;;4.55;1.75;;;;;;;9.50;90.24;102745.03;5073908;28;20049;-83
2022/09/21 00:06:18;;;;;;;4.35;1.60;;;;;;;9.41;89.77;102747.31;5091989;28;20143;-83
2022/09/21 00:08:45;;;;;;;2.95;1.45;;;;;;;9.32;90.04;102737.81;5074931;28;20520;-83
2022/09/21 00:11:23;;;;;;;1.52;1.27;;;;;;;9.32;89.95;102743.13;5092360;28;20045;-82
2022/09/21 00:13:56;;;;;;;1.50;1.40;;;;;;;9.32;89.97;102747.69;5074328;28;20467;-82
2022/09/21 00:16:23;;;;;;;4.50;1.58;;;;;;;9.29;90.09;102740.47;5092358;28;20040;-82
2022/09/21 00:18:51;;;;;;;1.88;1.52;;;;;;;9.23;89.99;102742.75;5091741;28;20044;-82
2022/09/21 00:21:18;;;;;;;5.20;1.40;;;;;;;9.16;89.81;102739.38;5092444;28;20052;-82
2022/09/21 00:23:44;;;;;;;1.58;1.48;;;;;;;9.02;90.14;102742.78;5080926;28;20045;-82
2022/09/21 00:26:14;;;;;;;2.15;1.67;;;;;;;9.00;90.37;102743.16;5099173;28;20047;-82
2022/09/21 00:28:42;;;;;;;2.28;1.60;;;;;;;8.99;90.22;102741.66;5080796;28;20168;-82
2022/09/21 00:31:11;;;;;;;1.67;1.33;;;;;;;8.97;90.12;102743.16;5099501;28;20037;-81
2022/09/21 00:33:39;;;;;;;3.15;1.60;;;;;;;8.94;90.20;102735.94;5098408;28;20083;-82
2022/09/21 00:36:08;;;;;;;2.25;1.65;;;;;;;8.91;90.05;102742.78;5099209;28;20040;-82
2022/09/21 00:38:36;;;;;;;1.88;1.25;;;;;;;8.87;90.03;102739.34;5063725;28;20450;-82
2022/09/21 00:41:04;;;;;;;2.65;1.52;;;;;;;8.83;89.66;102740.50;5080936;28;20056;-82
2022/09/21 00:43:34;;;;;;;1.88;1.38;;;;;;;8.79;89.63;102737.84;5080573;28;20051;-81
2022/09/21 00:46:05;;;;;;;2.03;1.50;;;;;;;8.75;89.37;102734.44;5097588;28;20391;-81
2022/09/21 00:48:32;;;;;;;1.35;1.25;;;;;;;8.70;89.61;102734.81;5098813;28;20045;-81
2022/09/21 00:51:05;;;;;;;1.85;1.48;;;;;;;8.67;89.75;102738.97;5081029;28;20136;-82
2022/09/21 00:53:32;;;;;;;2.33;1.85;;;;;;;8.63;90.10;102734.78;5079943;28;20048;-81
2022/09/21 00:56:01;;;;;;;1.27;1.27;;;;;;;8.59;89.88;102742.00;5097452;28;20523;-82
2022/09/21 00:58:34;;;;;;;1.50;1.40;;;;;;;8.52;89.90;102740.06;5080240;28;20559;-81
2022/09/21 01:01:01;;;;;;;2.67;1.70;;;;;;;8.49;90.07;102740.81;5079981;28;20052;-81
2022/09/21 01:03:30;;;;;;;1.85;1.20;;;;;;;8.44;89.76;102741.19;5080538;28;20056;-81
2022/09/21 01:05:56;;;;;;;3.40;1.08;;;;;;;8.41;89.65;102735.88;5096949;28;20056;-81
2022/09/21 01:08:26;;;;;;;2.25;1.27;;;;;;;8.35;89.67;102730.97;5099050;28;20158;-81
2022/09/21 01:11:07;;;;;;;1.92;1.17;;;;;;;8.32;89.57;102731.69;5080212;28;20141;-81
2022/09/21 01:14:02;;;;;;;1.80;1.13;;;;;;;8.24;89.61;102732.78;5101285;28;20052;-81
2022/09/21 01:16:35;;;;;;;1.20;1.10;;;;;;;8.24;89.69;102729.38;5043693;28;20466;-81
2022/09/21 01:19:27;;;;;;;2.42;1.30;;;;;;;8.19;89.46;102729.72;5118157;28;20067;-81
2022/09/21 01:22:10;;;;;;;1.27;1.00;;;;;;;8.15;89.47;102740.31;5110921;28;20095;-81
2022/09/21 01:25:02;;;;;;;1.20;1.10;;;;;;;8.07;89.61;102741.44;5099537;28;20052;-81
2022/09/21 01:27:41;;;;;;;3.50;1.30;;;;;;;8.03;89.75;102743.31;5103198;28;20121;-81
2022/09/21 01:30:12;;;;;;;4.75;1.20;;;;;;;7.94;89.58;102740.25;5124639;28;20033;-81
2022/09/21 01:33:04;;;;;;;1.48;1.30;;;;;;;7.83;90.00;102742.09;5126198;28;20040;-82
2022/09/21 01:35:56;;;;;;;1.00;1.00;;;;;;;7.81;89.99;102737.16;5123103;28;20772;-81
2022/09/21 01:38:27;;;;;;;2.28;1.30;;;;;;;7.79;90.21;102743.97;5095963;28;20065;-80
2022/09/21 01:41:01;;;;;;;2.20;1.17;;;;;;;7.76;90.29;102739.41;5117719;28;20488;-81
2022/09/21 01:43:35;;;;;;;1.52;1.13;;;;;;;7.73;90.09;102742.78;5115384;28;20516;-80
2022/09/21 01:46:04;;;;;;;1.23;1.13;;;;;;;7.67;90.27;102737.84;5113969;28;20048;-80
2022/09/21 01:48:36;;;;;;;2.15;1.20;;;;;;;7.62;90.06;102732.88;5096046;28;20048;-81
2022/09/21 01:51:06;;;;;;;;;;;;;;;7.58;89.91;102734.03;5115989;28;20055;-81
2022/09/21 01:53:44;;;;;;;1.95;1.73;;;;;;;7.55;90.31;102740.06;5114641;28;19931;-81
2022/09/21 01:56:20;;;;;;;3.35;1.45;;;;;;;7.53;90.02;102744.97;5115303;28;20055;-81
2022/09/21 01:58:54;;;;;;;3.25;1.25;;;;;;;7.47;90.24;102741.91;5095752;28;20156;-80
2022/09/21 02:01:30;;;;;;;3.65;1.10;;;;;;;7.46;89.85;102739.63;5115246;28;20051;-80
2022/09/21 02:04:03;;;;;;;3.08;1.30;;;;;;;7.33;89.88;102728.53;5115301;28;20548;-80
2022/09/21 02:06:30;;;;;;;1.23;1.23;;;;;;;7.24;90.12;102731.50;5113605;28;20404;-80
2022/09/21 02:08:57;;;;;;;4.43;1.40;;;;;;;7.26;89.78;102741.72;5115030;28;20083;-80
2022/09/21 02:11:24;;;;;;;5.28;1.40;;;;;;;7.23;89.86;102737.94;5114790;28;20054;-80
2022/09/21 02:13:52;;;;;;;1.35;1.10;;;;;;;7.20;89.74;102743.19;5096214;28;20917;-80
2022/09/21 02:16:35;;;;;;;1.98;1.17;;;;;;;7.14;89.90;102739.41;5113810;28;20119;-80
2022/09/21 02:19:45;;;;;;;3.83;1.13;;;;;;;7.16;89.90;102739.78;5115589;28;20049;-80
2022/09/21 02:22:21;;;;;;;2.65;1.52;;;;;;;7.14;90.02;102739.41;5085004;28;20095;-81
2022/09/21 02:24:56;;;;;;;1.05;1.05;;;;;;;7.13;90.17;102748.47;5096423;28;20048;-80
2022/09/21 02:27:33;;;;;;;1.95;1.23;;;;;;;7.09;89.96;102745.78;5096242;28;20595;-80
2022/09/21 02:30:21;;;;;;;1.50;1.40;;;;;;;7.05;90.03;102734.41;5115009;28;20047;-80
2022/09/21 02:32:57;;;;;;;4.15;1.08;;;;;;;7.02;90.51;102743.06;5114734;28;20136;-79
2022/09/21 02:35:38;;;;;;;4.57;1.00;;;;;;;6.99;90.22;102741.16;5114798;28;20503;-80
2022/09/21 02:38:15;;;;;;;9.68;1.45;;;;;;;6.96;90.37;102734.72;5115090;28;20044;-80
2022/09/21 02:41:12;;;;;;;1.10;1.10;;;;;;;6.95;90.24;102737.72;5114134;28;20119;-80
2022/09/21 02:43:51;;;;;;;1.23;1.10;;;;;;;6.92;90.00;102738.44;5087996;28;20440;-79
2022/09/21 02:46:25;;;;;;;1.88;0.90;;;;;;;6.85;90.08;102741.03;5114418;28;20123;-80
2022/09/21 02:48:56;;;;;;;2.45;1.10;;;;;;;6.83;90.56;102743.28;5114128;28;20456;-80
2022/09/21 02:51:41;;;;;;;1.50;1.40;;;;;;;6.85;90.31;102738.38;5095518;28;20075;-80
2022/09/21 02:54:10;;;;;;;3.85;1.23;;;;;;;6.82;90.52;102736.47;5114684;28;20059;-80
2022/09/21 02:56:40;;;;;;;2.58;1.38;;;;;;;6.77;90.60;102734.16;5113475;28;20530;-80
2022/09/21 02:59:07;;;;;;;4.55;1.33;;;;;;;6.73;90.75;102728.84;5114450;28;20157;-80
2022/09/21 03:01:34;;;;;;;1.13;1.02;;;;;;;6.73;90.63;102736.78;5095430;28;20123;-80
2022/09/21 03:04:01;;;;;;;2.78;1.30;;;;;;;6.72;90.41;102726.56;5114271;28;20488;-80
2022/09/21 03:06:27;;;;;;;1.45;1.30;;;;;;;6.66;90.42;102728.78;5113481;28;20058;-80
2022/09/21 03:08:54;;;;;;;3.00;1.20;;;;;;;6.60;90.55;102738.16;5112303;28;20102;-81
2022/09/21 03:11:20;;;;;;;7.82;1.40;;;;;;;6.58;90.59;102735.88;5094690;28;20135;-80
2022/09/21 03:13:47;;;;;;;4.95;1.40;;;;;;;6.58;90.66;102738.53;5094849;28;20513;-81
2022/09/21 03:16:13;;;;;;;1.48;1.20;;;;;;;6.59;90.46;102740.03;5113665;28;20052;-80
2022/09/21 03:18:42;;;;;;;1.15;1.13;;;;;;;6.60;90.57;102738.16;5095818;28;20123;-80
2022/09/21 03:21:09;;;;;;;1.80;1.13;;;;;;;6.59;90.48;102741.94;5114088;28;20051;-81
2022/09/21 03:23:35;;;;;;;3.17;1.40;;;;;;;6.54;90.38;102740.38;5095655;28;20090;-80
2022/09/21 03:26:02;;;;;;;4.82;1.30;;;;;;;6.47;90.81;102742.94;5113304;28;20393;-80
2022/09/21 03:28:29;;;;;;;1.65;1.55;;;;;;;6.47;91.11;102744.81;5095034;28;20602;-80
2022/09/21 03:30:56;;;;;;;1.42;1.30;;;;;;;6.44;91.04;102751.59;5113721;28;20048;-80
2022/09/21 03:33:24;;;;;;;3.03;1.23;;;;;;;6.44;90.95;102748.19;5094912;28;20048;-80
2022/09/21 03:35:51;;;;;;;4.45;1.30;;;;;;;6.42;91.22;102748.53;5094936;28;20048;-80
2022/09/21 03:38:18;;;;;;;1.88;1.30;;;;;;;6.39;91.06;102745.88;5095331;28;20206;-80
2022/09/21 03:40:45;;;;;;;2.45;1.17;;;;;;;6.42;91.14;102753.06;5112985;28;20051;-80
2022/09/21 03:43:12;;;;;;;2.58;1.50;;;;;;;6.42;90.71;102753.84;5095306;28;20635;-80
2022/09/21 03:45:42;;;;;;;1.15;1.10;;;;;;;6.43;90.93;102754.59;5111654;28;20084;-80
2022/09/21 03:48:10;;;;;;;1.85;1.40;;;;;;;6.41;91.20;102757.59;5095071;28;20200;-80
2022/09/21 03:50:37;;;;;;;1.45;1.35;;;;;;;6.40;91.09;102755.34;5094664;28;20047;-80
2022/09/21 03:53:04;;;;;;;2.65;1.70;;;;;;;6.39;91.05;102749.28;5112416;28;20520;-81
2022/09/21 03:55:32;;;;;;;1.70;1.40;;;;;;;6.38;91.06;102750.41;5112569;28;20116;-80
2022/09/21 03:57:59;;;;;;;1.63;1.13;;;;;;;6.38;91.72;102747.78;5112946;28;20039;-80
2022/09/21 04:00:26;;;;;;;1.77;1.40;;;;;;;6.36;91.37;102744.72;5094781;28;20462;-82
2022/09/21 04:02:53;;;;;;;0.98;0.93;;;;;;;6.34;91.65;102744.31;5094757;28;20190;-80
2022/09/21 04:05:19;;;;;;;1.67;1.30;;;;;;;6.33;91.71;102751.50;5094694;28;20063;-80
2022/09/21 04:07:46;;;;;;;1.35;1.25;;;;;;;6.29;91.76;102745.41;5112831;28;20093;-80
2022/09/21 04:10:16;;;;;;;2.35;1.15;;;;;;;6.24;91.53;102742.31;5094273;28;20143;-80
2022/09/21 04:12:43;;;;;;;2.10;1.02;;;;;;;6.20;91.73;102750.19;5112828;28;20115;-80
2022/09/21 04:15:12;;;;;;;4.00;1.40;;;;;;;6.22;91.60;102749.84;5112999;28;20131;-80
2022/09/21 04:17:38;;;;;;;1.30;1.20;;;;;;;6.20;91.79;102744.91;5112855;28;20083;-80
2022/09/21 04:20:06;;;;;;;1.40;1.30;;;;;;;6.16;91.96;102741.47;5094952;28;20047;-80
2022/09/21 04:22:34;;;;;;;1.58;1.25;;;;;;;6.12;91.79;102743.31;5093844;28;20101;-80
2022/09/21 04:25:04;;;;;;;1.52;1.40;;;;;;;6.09;91.72;102746.66;5112376;28;20490;-80
2022/09/21 04:27:32;;;;;;;4.47;1.75;;;;;;;6.08;91.95;102742.50;5112452;28;20076;-80
2022/09/21 04:29:59;;;;;;;2.15;1.50;;;;;;;6.03;92.02;102746.22;5094457;28;20135;-80
2022/09/21 04:32:25;;;;;;;3.03;1.67;;;;;;;5.98;91.95;102746.56;5112664;28;20075;-80
2022/09/21 04:34:52;;;;;;;2.85;1.70;;;;;;;5.97;91.97;102742.38;5112702;28;20044;-81
2022/09/21 04:37:18;;;;;;;6.38;1.70;;;;;;;5.94;91.92;102748.38;5093980;28;20483;-80
2022/09/21 04:39:45;;;;;;;1.65;1.55;;;;;;;5.92;91.45;102745.34;5112158;28;20986;-80
2022/09/21 04:42:12;;;;;;;2.80;1.77;;;;;;;5.92;91.81;102744.56;5094456;28;20040;-81
2022/09/21 04:44:38;;;;;;;6.05;1.65;;;;;;;5.87;92.10;102742.97;5094220;28;20041;-80
2022/09/21 04:47:04;;;;;;;4.05;1.50;;;;;;;5.85;92.04;102747.09;5112876;28;20131;-80
2022/09/21 04:49:31;;;;;;;1.83;1.60;;;;;;;5.85;91.91;102747.09;5094041;28;20079;-80
2022/09/21 04:51:57;;;;;;;2.95;1.50;;;;;;;5.83;92.03;102752.72;5094052;28;20076;-80
2022/09/21 04:54:24;;;;;;;3.08;1.27;;;;;;;5.83;91.86;102752.72;5112017;28;20497;-80
2022/09/21 04:56:50;;;;;;;1.75;1.42;;;;;;;5.80;92.06;102755.31;5093998;28;20052;-80
2022/09/21 04:59:17;;;;;;;2.13;1.75;;;;;;;5.74;91.78;102754.88;5112291;28;20072;-80
2022/09/21 05:01:43;;;;;;;1.65;1.55;;;;;;;5.70;91.92;102751.41;5112539;28;20130;-80
2022/09/21 05:04:10;;;;;;;2.65;1.40;;;;;;;5.69;91.42;102755.94;5093596;28;20140;-79
2022/09/21 05:06:36;;;;;;;2.03;1.40;;;;;;;5.70;91.99;102760.09;5111947;28;20127;-80
2022/09/21 05:11:48;;;;;;;3.92;2.03;;;;;;;5.65;92.24;102760.41;5115981;28;20566;-80
2022/09/21 05:14:14;;;;;;;3.75;1.80;;;;;;;5.65;91.98;102764.94;5115690;28;20532;-80
2022/09/21 05:16:41;;;;;;;1.98;1.80;;;;;;;5.64;92.12;102771.34;5115616;28;20040;-80
2022/09/21 05:19:07;;;;;;;2.28;2.05;;;;;;;5.63;92.07;102767.94;5115780;28;20060;-80
2022/09/21 05:21:35;;;;;;;3.28;1.63;;;;;;;5.64;92.20;102773.97;5114738;28;20040;-80
2022/09/21 05:24:01;;;;;;;2.40;1.90;;;;;;;5.62;92.19;102771.69;5080316;28;20132;-80
2022/09/21 05:26:28;;;;;;;1.50;1.40;;;;;;;5.58;91.97;102770.91;5115081;28;20044;-80
2022/09/21 05:28:55;;;;;;;3.08;1.58;;;;;;;5.60;92.40;102776.56;5097473;28;20067;-80
2022/09/21 05:31:37;;;;;;;1.73;1.63;;;;;;;5.59;92.07;102771.66;5113857;28;20115;-80
2022/09/21 05:34:28;;;;;;;1.67;1.58;;;;;;;5.58;92.12;102770.13;5097813;28;20055;-79
2022/09/21 05:37:10;;;;;;;2.40;1.58;;;;;;;5.61;92.34;102772.03;5098065;28;20489;-80
2022/09/21 05:39:37;;;;;;;2.63;1.70;;;;;;;5.62;92.14;102771.69;5096659;28;20083;-80
2022/09/21 05:42:04;;;;;;;1.60;1.50;;;;;;;5.64;92.20;102772.09;5097829;28;20135;-80
2022/09/21 05:44:31;;;;;;;3.92;1.80;;;;;;;5.62;92.33;102768.28;5115816;28;20492;-80
2022/09/21 05:47:06;;;;;;;2.15;1.45;;;;;;;5.64;92.61;102773.97;5115996;28;20510;-80
2022/09/21 05:49:51;;;;;;;5.45;1.48;;;;;;;5.64;92.67;102774.75;5115764;28;20594;-80
2022/09/21 05:53:10;;;;;;;3.45;1.63;;;;;;;5.68;92.42;102772.91;5115294;28;20051;-80
2022/09/21 05:55:56;;;;;;;3.13;1.77;;;;;;;5.70;92.45;102783.13;5081338;28;20075;-80
2022/09/21 05:58:41;;;;;;;6.93;1.80;;;;;;;5.72;92.38;102794.09;5097631;28;20059;-83
2022/09/21 06:01:22;;;;;;;3.33;2.90;;;;;;;5.74;92.33;102794.50;5097319;28;20048;-85
2022/09/21 06:03:49;;;;;;;5.57;2.50;;;;;;;5.73;92.47;102795.63;5097161;28;20122;-81
2022/09/21 06:06:19;;;;;;;7.15;4.85;;;;;;;5.74;92.91;102796.41;5115039;28;20132;-82
2022/09/21 06:08:45;;;;;;;9.30;2.00;;;;;;;5.81;93.69;102799.16;5115088;28;20040;-76
2022/09/21 06:11:12;;;;;;;4.60;1.77;;;;;;;5.89;93.39;102798.91;5115636;28;20119;-78
2022/09/21 06:13:40;;;;;;;2.50;1.73;;;;;;;5.93;93.23;102806.91;5115424;28;20199;-78
2022/09/21 06:16:06;;;;;;;4.03;1.77;;;;;;;5.99;93.79;102800.94;5097209;28;20429;-83
2022/09/21 06:18:41;;;;;;;1.92;1.83;;;;;;;6.10;93.43;102808.25;5116170;28;20044;-89
2022/09/21 06:21:08;;;;;;;2.95;1.92;;;;;;;6.12;93.13;102808.66;5116732;28;20040;-90
2022/09/21 06:23:35;;;;;;;2.00;1.90;;;;;;;6.13;93.29;102808.28;5118293;28;20123;-89
2022/09/21 06:26:02;;;;;;;3.08;1.88;;;;;;;6.25;93.28;102813.38;5119141;28;20044;-90
2022/09/21 06:28:28;;;;;;;7.03;2.03;;;;;;;6.71;93.99;102810.50;5119526;28;20048;-92
2022/09/21 06:30:56;;;;;;;1.83;1.63;;;;;;;8.08;89.23;102813.81;5118139;28;20047;-86
2022/09/21 06:33:23;;;;;;;2.45;2.20;;;;;;;8.23;86.55;102802.91;5119633;28;20097;-93
2022/09/21 06:35:55;;;;;;;4.80;2.28;;;;;;;8.10;87.61;102809.66;5124420;27;20055;-85
2022/09/21 06:38:22;;;;;;;2.35;2.15;;;;;;;8.41;86.06;102808.28;5080459;28;20079;-86
2022/09/21 06:40:49;;;;;;;7.53;2.40;;;;;;;8.37;86.42;102809.44;5114115;28;20063;-83
2022/09/21 06:43:16;;;;;;;3.13;2.80;;;;;;;8.32;86.88;102813.97;5096629;28;20084;-82
2022/09/21 06:45:43;;;;;;;3.80;2.72;;;;;;;8.20;88.16;102814.25;5114763;28;20531;-83
2022/09/21 06:48:10;;;;;;;3.45;3.13;;;;;;;8.19;89.42;102812.75;5113677;28;20051;-83
2022/09/21 06:50:36;;;;;;;3.47;3.00;;;;;;;8.18;89.84;102813.88;5095610;28;20044;-79
2022/09/21 06:53:03;;;;;;;3.38;3.17;;;;;;;8.16;90.74;102816.13;5114902;28;20071;-78
2022/09/21 06:55:30;;;;;;;4.30;3.30;;;;;;;8.19;91.06;102818.03;5096825;28;20072;-80
2022/09/21 06:58:01;;;;;;;4.18;3.00;;;;;;;8.21;90.88;102810.47;5096303;28;20052;-81
2022/09/21 07:00:29;;;;;;;5.68;3.10;;;;;;;8.26;91.04;102809.34;5096724;28;20135;-81
2022/09/21 07:02:56;;;;;;;5.38;3.97;;;;;;;8.32;91.34;102811.31;5114518;28;20793;-81
2022/09/21 07:05:22;;;;;;;3.58;3.10;;;;;;;8.43;91.68;102816.63;5113848;28;20123;-81
2022/09/21 07:07:49;;;;;;;5.90;3.17;;;;;;;8.51;91.30;102815.53;5114229;28;20563;-81
2022/09/21 07:10:19;;;;;;;3.70;3.10;;;;;;;8.60;91.18;102823.16;5115100;28;20040;-82
2022/09/21 07:12:46;;;;;;;3.63;3.33;;;;;;;8.71;91.56;102823.94;5078912;28;20144;-81
2022/09/21 07:15:14;;;;;;;7.90;3.25;;;;;;;8.86;91.41;102822.06;5096403;28;20068;-82
2022/09/21 07:17:41;;;;;;;5.60;2.78;;;;;;;8.97;91.23;102830.81;5112674;28;20050;-85
2022/09/21 07:20:08;;;;;;;5.78;3.15;;;;;;;9.11;90.96;102828.19;5095967;28;20493;-84
2022/09/21 07:22:35;;;;;;;5.57;3.40;;;;;;;9.20;90.75;102830.47;5114415;28;20048;-82
2022/09/21 07:25:04;;;;;;;3.15;2.85;;;;;;;9.31;90.86;102826.66;5095916;28;20194;-84
2022/09/21 07:27:32;;;;;;;8.25;3.50;;;;;;;9.48;90.69;102824.41;5095578;28;20163;-85
2022/09/21 07:29:58;;;;;;;3.42;2.80;;;;;;;9.60;90.07;102819.44;5095726;28;20135;-83
2022/09/21 07:32:25;;;;;;;4.18;2.80;;;;;;;9.79;90.83;102828.16;5094871;28;20075;-84
2022/09/21 07:34:55;;;;;;;5.30;2.92;;;;;;;9.98;90.73;102828.50;5095655;28;20047;-84
2022/09/21 07:37:26;;;;;;;8.45;3.05;;;;;;;10.12;89.70;102825.03;5096177;28;20072;-87
2022/09/21 07:39:53;;;;;;;6.97;3.00;;;;;;;10.20;89.25;102825.78;5115279;28;20052;-89
2022/09/21 07:42:21;;;;;;;4.40;2.92;;;;;;;10.28;89.62;102816.63;5114355;28;20044;-87
2022/09/21 07:44:48;;;;;;;5.15;3.03;;;;;;;10.47;89.24;102823.38;5113374;28;20105;-86
2022/09/21 07:47:16;;;;;;;8.50;2.92;;;;;;;10.63;89.39;102826.34;5095497;28;20526;-86
2022/09/21 07:49:43;;;;;;;11.40;3.50;;;;;;;10.72;88.31;102820.59;5095414;28;20523;-87
2022/09/21 07:52:09;;;;;;;5.45;3.10;;;;;;;10.86;88.62;102825.81;5096867;28;20500;-86
2022/09/21 07:54:36;;;;;;;7.35;4.03;;;;;;;11.02;88.60;102816.22;5115225;28;20094;-87
2022/09/21 07:59:48;;;;;;;8.32;3.15;;;;;;;11.35;87.14;102820.13;5095448;28;20068;-88
2022/09/21 08:02:14;;;;;;;5.22;2.92;;;;;;;11.44;86.38;102824.25;5095943;28;20504;-88
2022/09/21 08:04:41;;;;;;;4.53;2.67;;;;;;;11.61;85.64;102826.75;5095585;28;20044;-88
2022/09/21 08:07:07;;;;;;;6.47;2.80;;;;;;;11.77;85.63;102825.47;5114114;28;20131;-88
2022/09/21 08:09:34;;;;;;;11.23;2.55;;;;;;;11.91;84.32;102817.34;5112755;28;20074;-88
2022/09/21 08:12:00;;;;;;;3.25;2.45;;;;;;;12.06;84.56;102809.91;5113474;28;20071;-87
2022/09/21 08:14:28;;;;;;;4.53;2.38;;;;;;;12.19;83.03;102811.66;5094838;28;20102;-87
2022/09/21 08:16:54;;;;;;;3.83;2.42;;;;;;;12.30;82.72;102809.63;5101734;28;20078;-87
2022/09/21 08:19:22;;;;;;;7.35;2.80;;;;;;;12.48;82.99;102811.28;5113826;28;20040;-87
2022/09/21 08:21:50;;;;;;;5.00;2.65;;;;;;;12.67;82.57;102813.31;5112340;28;20119;-87
2022/09/21 08:24:23;;;;;;;6.45;2.55;;;;;;;12.79;81.14;102818.13;5113324;28;20044;-86
2022/09/21 08:26:51;;;;;;;6.90;2.78;;;;;;;12.93;81.17;102822.47;5095158;28;20186;-87
2022/09/21 08:29:17;;;;;;;7.05;2.42;;;;;;;13.10;80.92;102824.13;5095676;28;20105;-87
2022/09/21 08:31:45;;;;;;;7.43;2.38;;;;;;;13.30;81.68;102829.56;5113401;28;20048;-87
2022/09/21 08:34:11;;;;;;;3.88;2.65;;;;;;;13.35;80.42;102834.44;5113458;28;20046;-86
2022/09/21 08:36:38;;;;;;;18.45;2.50;;;;;;;13.43;80.75;102835.09;5078590;28;20083;-87
2022/09/21 08:39:06;;;;;;;4.63;2.42;;;;;;;13.47;79.43;102831.19;5102724;28;20041;-87
2022/09/21 08:42:02;;;;;;;3.97;2.33;;;;;;;13.69;80.08;102836.91;5074519;28;20048;-88
2022/09/21 08:44:37;;;;;;;7.00;2.20;;;;;;;13.88;77.47;102836.19;5077440;28;20040;-87
2022/09/21 08:47:11;;;;;;;2.33;1.95;;;;;;;13.95;76.99;102832.63;5095389;28;20052;-88
2022/09/21 08:49:41;;;;;;;13.15;2.17;;;;;;;14.09;76.84;102836.91;5095177;28;20527;-88
2022/09/21 08:52:12;;;;;;;12.55;2.08;;;;;;;14.16;75.49;102834.84;5082194;28;20139;-91
2022/09/21 08:54:50;;;;;;;5.28;2.05;;;;;;;14.37;75.39;102838.28;5101122;28;20045;-91
2022/09/21 08:57:18;;;;;;;10.85;2.30;;;;;;;14.48;73.39;102842.25;5083609;28;20100;-91
2022/09/21 08:59:46;;;;;;;7.05;2.22;;;;;;;14.58;73.55;102840.53;5091005;28;20037;-93
2022/09/21 09:02:49;;;;;;;4.78;2.13;;;;;;;14.68;73.08;102837.63;5104923;28;20088;-87
2022/09/21 09:05:30;;;;;;;6.45;1.90;;;;;;;14.87;72.10;102838.69;5037345;28;20057;-81
2022/09/21 09:08:02;;;;;;;;;;;;;;;15.07;73.28;102838.63;5053504;28;20514;-84
2022/09/21 09:10:36;;;;;;;5.53;1.85;;;;;;;15.01;70.74;102841.06;5020453;28;19929;-86
2022/09/21 09:13:48;;;;;;;3.75;1.63;;;;;;;15.15;70.90;102847.28;5053449;28;20060;-88
2022/09/21 09:16:26;;;;;;;8.10;1.70;;;;;;;15.26;69.13;102839.69;5049172;28;20103;-90
2022/09/21 09:19:13;;;;;;;7.53;1.90;;;;;;;15.38;69.51;102841.69;5038194;28;20060;-88
2022/09/21 09:21:42;;;;;;;3.63;1.38;;;;;;;15.47;65.44;102843.78;5053450;28;20105;-91
2022/09/21 09:24:29;;;;;;;9.73;1.67;;;;;;;15.62;67.21;102847.63;5057325;28;20034;-93
2022/09/21 09:27:18;;;;;;;3.13;1.30;;;;;;;15.76;65.99;102852.63;5060118;28;20053;-86
2022/09/21 09:29:55;;;;;;;4.75;1.30;;;;;;;15.93;65.37;102839.91;5057509;28;20130;-85
2022/09/21 09:32:36;;;;;;;63.80;39.42;;;;;;;16.06;64.61;102853.34;5037067;28;20220;-88
2022/09/21 09:35:24;;;;;;;8.55;4.10;;;;;;;16.27;65.19;102855.44;5052903;28;20089;-87
2022/09/21 09:37:55;;;;;;;8.15;1.65;;;;;;;16.31;63.50;102843.41;5035840;28;20111;-87
2022/09/21 09:40:55;;;;;;;4.13;1.60;;;;;;;16.47;64.11;102844.50;5053036;28;20607;-87
2022/09/21 09:43:48;;;;;;;4.30;1.50;;;;;;;16.42;63.43;102847.72;5095328;28;20317;-84
2022/09/21 09:46:30;;;;;;;4.05;1.30;;;;;;;16.35;63.27;102843.31;5095695;28;20044;-86
2022/09/21 09:49:03;;;;;;;6.45;1.85;;;;;;;16.50;63.41;102841.69;5095310;28;20491;-84
2022/09/21 09:51:34;;;;;;;4.18;1.50;;;;;;;16.53;62.21;102843.53;5095753;28;20040;-81
2022/09/21 09:54:00;;;;;;;2.80;1.80;;;;;;;16.53;61.80;102842.78;5094963;28;20123;-81
2022/09/21 09:56:27;;;;;;;5.03;1.58;;;;;;;16.48;61.09;102841.38;5094483;28;20120;-85
2022/09/21 09:58:58;;;;;;;2.92;1.20;;;;;;;16.58;60.19;102844.94;5077139;28;20123;-85
2022/09/21 10:01:35;;;;;;;8.13;1.48;;;;;;;16.71;61.20;102839.59;5095386;28;20045;-86
2022/09/21 10:04:05;;;;;;;5.68;1.40;;;;;;;16.84;61.17;102848.38;5095240;28;20099;-86
2022/09/21 10:06:33;;;;;;;3.10;1.33;;;;;;;16.89;60.08;102840.53;5094098;28;20067;-83
2022/09/21 10:08:59;;;;;;;2.65;1.33;;;;;;;16.93;58.46;102843.84;5095354;28;20420;-86
2022/09/21 10:11:36;;;;;;;3.80;1.10;;;;;;;16.86;58.40;102840.63;5095303;28;20134;-83
2022/09/21 10:14:13;;;;;;;3.28;1.25;;;;;;;16.84;57.64;102835.69;5095526;28;20541;-90
2022/09/21 10:16:40;;;;;;;5.40;1.20;;;;;;;16.81;56.24;102839.25;5076224;28;20145;-79
2022/09/21 10:19:19;;;;;;;3.72;1.30;;;;;;;16.79;57.42;102840.88;5076909;28;20041;-78
2022/09/21 10:21:46;;;;;;;4.55;1.20;;;;;;;16.72;55.12;102825.72;5094767;28;20068;-85
2022/09/21 10:24:25;;;;;;;2.90;1.13;;;;;;;16.64;54.89;102837.88;5094734;28;20051;-82
2022/09/21 10:27:03;;;;;;;1.58;1.45;;;;;;;16.62;56.60;102830.19;5094240;28;20578;-83
2022/09/21 10:29:39;;;;;;;5.32;1.67;;;;;;;16.65;57.78;102829.38;5094975;28;20486;-83
2022/09/21 10:32:12;;;;;;;4.60;1.65;;;;;;;16.65;57.56;102829.38;5093551;28;20563;-83
2022/09/21 10:35:00;;;;;;;5.97;1.90;;;;;;;16.72;58.05;102828.41;5093254;28;20485;-82
2022/09/21 10:37:39;;;;;;;6.82;1.70;;;;;;;16.77;55.79;102825.19;5059609;28;20087;-83
2022/09/21 10:40:18;;;;;;;2.70;1.42;;;;;;;16.73;55.51;102821.84;5076378;28;20074;-83
2022/09/21 10:42:48;;;;;;;1.85;1.50;;;;;;;16.73;56.52;102821.84;5092268;28;20051;-87
2022/09/21 10:45:24;;;;;;;4.60;1.38;;;;;;;16.78;56.70;102821.31;5096095;28;20089;-89
2022/09/21 10:47:55;;;;;;;6.07;1.02;;;;;;;16.83;55.90;102822.66;5094591;28;20168;-81
2022/09/21 10:50:41;;;;;;;21.70;16.27;;;;;;;16.84;55.54;102816.84;5094237;28;20112;-81
2022/09/21 10:53:07;;;;;;;6.18;1.98;;;;;;;16.86;56.87;102817.19;5059202;28;20555;-81
2022/09/21 10:55:54;;;;;;;1.67;1.48;;;;;;;16.91;56.05;102819.31;5092272;28;20064;-81
2022/09/21 10:59:20;;;;;;;2.10;1.65;;;;;;;16.84;56.20;102821.47;5093010;28;20044;-80
2022/09/21 11:01:49;;;;;;;3.15;1.60;;;;;;;16.81;54.74;102811.59;5092237;28;20053;-84
2022/09/21 11:04:23;;;;;;;1.98;1.33;;;;;;;16.89;55.13;102812.88;5075979;28;20557;-84
2022/09/21 11:06:56;;;;;;;10.05;1.88;;;;;;;16.92;55.67;102822.78;5074568;28;20060;-83
2022/09/21 11:09:34;;;;;;;3.08;1.10;;;;;;;16.94;54.09;102821.16;5094272;28;20120;-83
2022/09/21 11:12:25;;;;;;;7.45;1.20;;;;;;;16.92;54.28;102812.75;5076102;28;20131;-83
2022/09/21 11:15:20;;;;;;;4.00;1.00;;;;;;;16.94;54.48;102815.78;5075307;28;20062;-83
2022/09/21 11:17:53;;;;;;;8.60;1.40;;;;;;;16.95;54.06;102808.44;5093579;28;20412;-80
2022/09/21 11:20:54;;;;;;;3.65;1.13;;;;;;;17.02;54.12;102815.53;5075615;28;20055;-80
2022/09/21 11:23:32;;;;;;;4.82;1.50;;;;;;;17.05;53.52;102806.59;5067910;28;20629;-83
2022/09/21 11:26:10;;;;;;;4.82;1.40;;;;;;;17.14;52.69;102802.06;5094582;28;20765;-92
2022/09/21 11:28:52;;;;;;;13.63;2.00;;;;;;;17.09;53.70;102802.63;5103888;28;20044;-89
2022/09/21 11:31:21;;;;;;;;;;;;;;;16.76;54.52;102807.53;5105855;28;20092;-93
2022/09/21 11:34:10;;;;;;;6.88;1.70;;;;;;;16.65;53.28;102799.78;5077591;28;19920;-91
2022/09/21 11:36:58;;;;;;;2.63;1.63;;;;;;;16.67;53.43;102800.13;5102666;28;20040;-96
2022/09/21 11:39:32;;;;;;;7.75;1.52;;;;;;;16.66;52.77;102789.78;5097763;28;20107;-93
2022/09/21 11:42:12;;;;;;;4.85;1.48;;;;;;;16.72;52.06;102795.38;5099650;28;20036;-93
2022/09/21 11:44:54;;;;;;;6.63;0.93;;;;;;;16.82;53.59;102792.31;5098903;28;20100;-88
2022/09/21 11:47:40;;;;;;;2.15;1.08;;;;;;;16.91;52.88;102792.44;5094006;28;20135;-79
2022/09/21 11:50:09;;;;;;;2.70;0.95;;;;;;;16.93;49.78;102800.81;5093645;28;20119;-78
2022/09/21 11:53:30;;;;;;;1.70;0.63;;;;;;;16.91;50.37;102797.06;5092480;28;20519;-78
2022/09/21 11:56:05;;;;;;;1.60;0.82;;;;;;;16.87;50.15;102791.03;5092102;28;20075;-78
2022/09/21 11:58:42;;;;;;;1.67;1.10;;;;;;;16.90;51.40;102785.53;5091428;28;20127;-79
2022/09/21 12:01:47;;;;;;;3.65;1.52;;;;;;;16.95;50.89;102781.56;5092880;28;20135;-79
2022/09/21 12:04:33;;;;;;;6.53;1.50;;;;;;;16.92;51.30;102777.03;5093009;28;20128;-87